Time;durP1;ratioP1;P1;durP2;ratioP2;P2;SDS_P1;SDS_P2;PMS_P1;PMS_P2;Temp;Humidity;BMP_temperature;BMP_pressure;BME280_temperature;BME280_humidity;BME280_pressure;Samples;Min_cycle;Max_cycle;Signal;HPM_P1;HPM_P2
2021/03/04 09:09:33;;;;;;;;;;;;;;;10.88;58.39;99973.59;6248062;22;19997;-86
2021/03/04 09:11:59;;;;;;;;;;;;;;;10.90;58.83;99968.22;6245001;23;20225;-82
2021/03/04 09:14:34;;;;;;;;;;;;;;;10.93;58.38;99967.22;6251732;23;19961;-82
2021/03/04 09:17:04;;;;;;;;;;;;;;;11.16;60.93;99967.13;6249231;23;19915;-84
2021/03/04 09:19:30;;;;;;;;;;;;;;;11.03;59.93;99964.13;6247106;23;19912;-82
2021/03/04 09:22:00;;;;;;;;;;;;;;;10.82;59.42;99952.63;6248324;23;19987;-82
2021/03/04 09:24:26;;;;;;;;;;;;;;;10.72;59.65;99951.28;6246338;23;19954;-82
2021/03/04 09:26:52;;;;;;;;;;;;;;;10.74;58.97;99957.41;6247793;23;19927;-82
2021/03/04 09:29:18;;;;;;;;;;;;;;;10.80;59.91;99948.31;6244698;23;19915;-83
2021/03/04 09:32:02;;;;;;;;;;;;;;;10.86;58.94;99951.56;6222934;23;19915;-81
2021/03/04 09:34:43;;;;;;;;;;;;;;;10.65;59.17;99953.31;6254681;23;19915;-81
2021/03/04 09:37:09;;;;;;;;;;;;;;;10.66;59.77;99957.69;6255433;23;19943;-81
2021/03/04 09:39:44;;;;;;;;;;;;;;;10.58;59.05;99956.25;6249743;23;19916;-80
2021/03/04 09:42:11;;;;;;;;;;;;;;;10.61;59.69;99948.19;6247171;23;19919;-78
2021/03/04 09:44:56;;;;;;;;;;;;;;;10.50;59.28;99949.50;6247462;23;19919;-79
2021/03/04 09:47:27;;;;;;;;;;;;;;;10.52;59.70;99950.28;6246857;23;19916;-76
2021/03/04 09:49:57;;;;;;;;;;;;;;;10.48;59.51;99954.00;6247676;23;19916;-81
2021/03/04 09:52:31;;;;;;;;;;;;;;;10.43;59.57;99955.09;6248409;23;19922;-80
2021/03/04 09:55:11;;;;;;;;;;;;;;;10.65;59.15;99955.97;6246529;23;19919;-81
2021/03/04 09:57:40;;;;;;;;;;;;;;;10.75;60.07;99960.91;6247547;23;19983;-80
2021/03/04 10:00:07;;;;;;;;;;;;;;;10.67;59.16;99958.56;6220399;23;19919;-78
2021/03/04 10:02:39;;;;;;;;;;;;;;;10.58;59.67;99953.63;6247676;23;19920;-78
2021/03/04 10:05:11;;;;;;;;;;;;;;;10.58;60.28;99959.81;6246020;23;20414;-80
2021/03/04 10:07:36;;;;;;;;;;;;;;;10.51;59.62;99966.25;6246322;23;19987;-81
2021/03/04 10:10:05;;;;;;;;;;;;;;;10.61;59.75;99970.28;6247353;23;20288;-81
2021/03/04 10:12:30;;;;;;;;;;;;;;;10.45;59.60;99974.44;6246284;23;19920;-80
2021/03/04 10:14:59;;;;;;;;;;;;;;;10.59;60.52;99968.59;6244517;23;19916;-78
2021/03/04 10:17:38;;;;;;;;;;;;;;;10.80;59.07;99981.00;6245911;23;19919;-79
2021/03/04 10:20:04;;;;;;;;;;;;;;;10.62;60.07;99976.44;6247466;23;19915;-80
2021/03/04 10:22:40;;;;;;;;;;;;;;;10.60;60.21;99965.88;6246250;23;20262;-81
2021/03/04 10:25:08;;;;;;;;;;;;;;;11.00;59.13;99963.41;6247007;23;19926;-80
2021/03/04 10:27:36;;;;;;;;;;;;;;;11.05;59.59;99964.06;6248095;23;19916;-81
2021/03/04 10:30:07;;;;;;;;;;;;;;;11.16;59.70;99966.28;6247199;23;19919;-82
2021/03/04 10:32:32;;;;;;;;;;;;;;;11.23;60.79;99960.66;6253057;23;19950;-81
2021/03/04 10:34:59;;;;;;;;;;;;;;;11.37;59.93;99961.84;6250051;23;19916;-83
2021/03/04 10:37:28;;;;;;;;;;;;;;;11.54;59.44;99956.66;6244143;23;20281;-83
2021/03/04 10:39:55;;;;;;;;;;;;;;;11.52;59.43;99952.31;6220027;23;19915;-84
2021/03/04 10:42:22;;;;;;;;;;;;;;;11.37;59.79;99960.03;6245442;23;19920;-84
2021/03/04 10:44:51;;;;;;;;;;;;;;;11.47;59.58;99947.22;6245559;23;19916;-81
2021/03/04 10:47:26;;;;;;;;;;;;;;;11.49;60.12;99947.16;6245887;23;19969;-81
2021/03/04 10:49:51;;;;;;;;;;;;;;;11.61;59.60;99939.50;6245576;23;19995;-86
2021/03/04 10:52:18;;;;;;;;;;;;;;;11.68;59.47;99932.16;6245333;23;20259;-81
2021/03/04 10:54:45;;;;;;;;;;;;;;;11.69;59.60;99935.66;6245858;23;19915;-84
2021/03/04 10:57:15;;;;;;;;;;;;;;;11.61;59.59;99936.00;6244656;23;19915;-85
2021/03/04 10:59:41;;;;;;;;;;;;;;;11.56;59.85;99938.84;6244212;23;20506;-83
2021/03/04 11:02:11;;;;;;;;;;;;;;;11.47;60.20;99935.75;6245393;23;19973;-81
2021/03/04 11:04:38;;;;;;;;;;;;;;;11.42;60.41;99931.53;6245923;23;19915;-82
2021/03/04 11:07:05;;;;;;;;;;;;;;;11.41;60.25;99935.09;6219247;23;19911;-81
2021/03/04 11:09:31;;;;;;;;;;;;;;;11.34;60.55;99938.94;6244441;23;19916;-84
2021/03/04 11:11:59;;;;;;;;;;;;;;;11.32;60.78;99938.16;6243962;23;19923;-82
2021/03/04 11:14:28;;;;;;;;;;;;;;;11.29;60.30;99932.97;6244572;23;19979;-81
2021/03/04 11:16:54;;;;;;;;;;;;;;;11.10;61.04;99940.84;6244355;23;20366;-83
2021/03/04 11:19:26;;;;;;;;;;;;;;;11.11;61.34;99945.25;6244908;23;19916;-79
2021/03/04 11:22:01;;;;;;;;;;;;;;;11.17;61.30;99938.81;6245457;23;19955;-81
2021/03/04 11:24:31;;;;;;;;;;;;;;;11.21;61.11;99943.06;6245085;23;19926;-81
2021/03/04 11:26:56;;;;;;;;;;;;;;;11.21;61.18;99943.06;6217777;23;19939;-82
2021/03/04 11:29:22;;;;;;;;;;;;;;;11.25;61.49;99942.88;6217351;23;19916;-81
2021/03/04 11:31:49;;;;;;;;;;;;;;;11.24;60.99;99940.28;6242089;23;20288;-81
2021/03/04 11:34:18;;;;;;;;;;;;;;;11.19;61.55;99931.66;6244593;23;19916;-83
2021/03/04 11:36:46;;;;;;;;;;;;;;;11.24;61.73;99924.38;6244630;23;19922;-84
2021/03/04 11:39:17;;;;;;;;;;;;;;;11.27;61.50;99921.59;6246521;23;19930;-83
2021/03/04 11:41:43;;;;;;;;;;;;;;;11.53;61.30;99920.41;6217570;23;19919;-80
2021/03/04 11:44:13;;;;;;;;;;;;;;;11.48;61.42;99911.81;6245179;23;19965;-81
2021/03/04 11:46:42;;;;;;;;;;;;;;;11.50;61.19;99901.97;6243848;23;19958;-79
2021/03/04 11:49:11;;;;;;;;;;;;;;;11.49;61.80;99908.25;6244606;23;20494;-82
2021/03/04 11:51:39;;;;;;;;;;;;;;;11.63;61.46;99907.59;6248210;23;19915;-81
2021/03/04 11:54:05;;;;;;;;;;;;;;;11.71;60.81;99900.16;6247925;23;19915;-82
2021/03/04 11:56:31;;;;;;;;;;;;;;;11.77;61.28;99894.56;6246634;23;19977;-82
2021/03/04 11:58:57;;;;;;;;;;;;;;;11.78;60.97;99885.66;6247591;23;19927;-82
2021/03/04 12:01:30;;;;;;;;;;;;;;;11.75;61.34;99888.47;6246737;23;19923;-82
2021/03/04 12:03:56;;;;;;;;;;;;;;;11.82;61.18;99889.03;6248337;23;19946;-82
2021/03/04 12:06:41;;;;;;;;;;;;;;;11.73;61.13;99893.00;6246550;23;19923;-82
2021/03/04 12:09:07;;;;;;;;;;;;;;;11.76;61.29;99882.22;6247207;23;19915;-81
2021/03/04 12:11:35;;;;;;;;;;;;;;;11.87;60.91;99867.59;6248915;23;19926;-81
2021/03/04 12:14:00;;;;;;;;;;;;;;;11.88;60.89;99858.69;6247302;23;19922;-81
2021/03/04 12:16:26;;;;;;;;;;;;;;;11.95;60.63;99852.19;6246572;23;20292;-82
2021/03/04 12:18:53;;;;;;;;;;;;;;;11.93;60.85;99851.41;6248082;23;21078;-81
2021/03/04 12:21:18;;;;;;;;;;;;;;;12.00;60.65;99852.84;6248065;23;19999;-81
2021/03/04 12:23:49;;;;;;;;;;;;;;;12.09;60.54;99860.34;6247220;23;19958;-81
2021/03/04 12:26:15;;;;;;;;;;;;;;;11.98;60.82;99850.25;6247975;23;19915;-82
2021/03/04 12:28:40;;;;;;;;;;;;;;;11.82;61.12;99844.78;6248375;23;19922;-82
2021/03/04 12:31:06;;;;;;;;;;;;;;;11.91;60.99;99840.81;6248196;23;19944;-82
2021/03/04 12:33:31;;;;;;;;;;;;;;;11.87;61.31;99841.03;6247797;23;19916;-81
2021/03/04 12:35:57;;;;;;;;;;;;;;;11.80;61.25;99838.66;6248179;23;19977;-81
2021/03/04 12:38:23;;;;;;;;;;;;;;;11.81;61.01;99834.25;6221265;23;20324;-82
2021/03/04 12:40:49;;;;;;;;;;;;;;;11.74;61.27;99833.66;6244933;23;19919;-79
2021/03/04 12:43:17;;;;;;;;;;;;;;;11.61;61.45;99827.19;6219521;23;19922;-81
2021/03/04 12:45:43;;;;;;;;;;;;;;;11.56;61.52;99821.25;6244346;23;19926;-80
2021/03/04 12:48:12;;;;;;;;;;;;;;;11.52;62.00;99827.63;6244304;22;19951;-79
2021/03/04 12:50:38;;;;;;;;;;;;;;;11.78;61.63;99821.97;6243356;23;19915;-78
2021/03/04 12:53:07;;;;;;;;;;;;;;;11.93;61.65;99814.22;6246500;23;19974;-78
2021/03/04 12:55:32;;;;;;;;;;;;;;;11.65;62.69;99807.56;6244704;23;19916;-78
2021/03/04 12:58:01;;;;;;;;;;;;;;;11.70;65.12;99813.50;6245181;23;19926;-79
2021/03/04 13:00:27;;;;;;;;;;;;;;;11.70;66.61;99808.19;6242067;23;19947;-75
2021/03/04 13:02:56;;;;;;;;;;;;;;;11.90;65.38;99804.59;6244538;23;20280;-79
2021/03/04 13:05:23;;;;;;;;;;;;;;;11.93;66.78;99793.00;6243937;23;19916;-75
2021/03/04 13:07:48;;;;;;;;;;;;;;;11.72;67.92;99792.19;6241847;23;19915;-79
2021/03/04 13:10:14;;;;;;;;;;;;;;;11.69;68.33;99792.34;6242354;23;19919;-78
2021/03/04 13:12:40;;;;;;;;;;;;;;;11.47;66.12;99779.22;6240764;23;19920;-75
2021/03/04 13:15:06;;;;;;;;;;;;;;;11.57;64.65;99773.41;6243010;23;19927;-76
2021/03/04 13:17:31;;;;;;;;;;;;;;;11.77;63.09;99771.59;6244156;23;19983;-75
2021/03/04 13:19:59;;;;;;;;;;;;;;;11.32;64.82;99770.19;6244045;23;20311;-76
2021/03/04 13:22:25;;;;;;;;;;;;;;;11.54;63.80;99770.91;6241559;23;19923;-75
2021/03/04 13:24:51;;;;;;;;;;;;;;;11.55;64.25;99771.75;6243738;23;19962;-83
2021/03/04 13:27:18;;;;;;;;;;;;;;;11.46;64.21;99767.75;6242552;23;20285;-84
2021/03/04 13:29:44;;;;;;;;;;;;;;;11.39;64.02;99764.53;6218110;23;19916;-85
2021/03/04 13:32:10;;;;;;;;;;;;;;;11.35;64.07;99765.59;6216445;23;20351;-84
2021/03/04 13:34:35;;;;;;;;;;;;;;;11.32;64.19;99757.78;6244736;23;19919;-83
2021/03/04 13:37:03;;;;;;;;;;;;;;;11.31;64.27;99757.84;6243186;23;19923;-83
2021/03/04 13:39:30;;;;;;;;;;;;;;;11.28;64.40;99756.22;6244788;23;19915;-82
